Time;durP1;ratioP1;P1;durP2;ratioP2;P2;SDS_P1;SDS_P2;PMS_P1;PMS_P2;Temp;Humidity;BMP_temperature;BMP_pressure;BME280_temperature;BME280_humidity;BME280_pressure;Samples;Min_cycle;Max_cycle;Signal;HPM_P1;HPM_P2
2023/06/30 00:02:19;;;;;;;10.80;8.07;;;26.80;73.10;;;;;;5034309;28;20034;-73
2023/06/30 00:04:47;;;;;;;10.68;7.55;;;26.70;73.00;;;;;;5034135;28;20411;-74
2023/06/30 00:07:13;;;;;;;12.68;8.27;;;26.80;73.10;;;;;;5034297;28;20048;-75
2023/06/30 00:09:39;;;;;;;9.15;7.57;;;26.80;73.10;;;;;;5034257;28;20038;-74
2023/06/30 00:12:05;;;;;;;10.43;7.95;;;26.80;73.20;;;;;;5034106;28;20033;-75
2023/06/30 00:14:31;;;;;;;10.73;7.97;;;26.80;72.90;;;;;;5034178;28;20426;-74
2023/06/30 00:16:56;;;;;;;11.40;8.02;;;26.80;73.40;;;;;;5034142;28;20095;-75
2023/06/30 00:19:24;;;;;;;10.15;7.90;;;26.80;73.30;;;;;;5034200;28;20526;-75
2023/06/30 00:21:52;;;;;;;10.50;7.75;;;26.80;73.50;;;;;;5033957;28;20065;-74
2023/06/30 00:24:18;;;;;;;11.98;7.78;;;26.80;73.50;;;;;;5033959;28;20033;-75
2023/06/30 00:26:44;;;;;;;10.43;7.40;;;26.80;73.60;;;;;;5033903;28;20125;-75
2023/06/30 00:29:10;;;;;;;11.35;8.32;;;26.70;73.60;;;;;;5033843;28;20053;-72
2023/06/30 00:31:36;;;;;;;11.23;7.75;;;26.70;73.70;;;;;;5034421;28;20044;-75
2023/06/30 00:34:02;;;;;;;14.57;8.80;;;26.60;73.90;;;;;;5034037;28;20052;-74
2023/06/30 00:36:29;;;;;;;11.50;7.60;;;26.60;73.70;;;;;;5033584;28;20052;-74
2023/06/30 00:38:55;;;;;;;12.95;7.90;;;26.50;73.90;;;;;;5034144;28;20085;-73
2023/06/30 00:41:21;;;;;;;9.23;7.70;;;26.60;74.20;;;;;;5033485;28;20121;-72
2023/06/30 00:43:47;;;;;;;12.32;8.63;;;26.60;74.20;;;;;;5033437;28;20053;-74
2023/06/30 00:46:15;;;;;;;9.60;7.45;;;26.50;74.20;;;;;;5033501;28;20046;-75
2023/06/30 00:48:41;;;;;;;14.38;8.40;;;26.50;74.60;;;;;;5033480;28;20065;-74
2023/06/30 00:51:08;;;;;;;12.65;8.43;;;26.50;74.40;;;;;;5033279;28;20447;-74
2023/06/30 00:53:34;;;;;;;11.95;8.40;;;26.50;74.60;;;;;;5033257;28;20052;-74
2023/06/30 00:55:59;;;;;;;12.27;8.32;;;26.50;74.40;;;;;;5033207;28;20483;-74
2023/06/30 00:58:25;;;;;;;10.20;7.25;;;26.50;74.50;;;;;;5033131;28;20045;-74
2023/06/30 01:00:55;;;;;;;14.55;8.55;;;26.50;74.40;;;;;;5032153;28;20049;-74
2023/06/30 01:03:38;;;;;;;13.50;8.02;;;26.50;74.80;;;;;;5033061;28;20430;-72
2023/06/30 01:06:11;;;;;;;;;;;26.50;74.50;;;;;;5015501;28;20419;-75
2023/06/30 01:09:03;;;;;;;11.45;7.78;;;26.40;74.70;;;;;;5033230;28;19904;-74
2023/06/30 01:11:30;;;;;;;10.40;7.60;;;26.30;74.20;;;;;;5032975;28;20037;-74
2023/06/30 01:13:58;;;;;;;11.88;8.18;;;26.30;75.40;;;;;;5032804;28;20034;-73
2023/06/30 01:16:28;;;;;;;11.38;7.70;;;26.30;75.20;;;;;;5033022;28;20034;-75
2023/06/30 01:18:55;;;;;;;11.20;8.13;;;26.30;75.80;;;;;;5032853;28;20388;-74
2023/06/30 01:21:22;;;;;;;10.70;8.18;;;26.30;75.30;;;;;;5032669;28;20132;-74
2023/06/30 01:23:52;;;;;;;12.48;8.70;;;26.20;75.40;;;;;;5032646;28;20440;-72
2023/06/30 01:26:20;;;;;;;11.80;8.02;;;26.20;74.60;;;;;;5032797;28;20038;-73
2023/06/30 01:28:46;;;;;;;12.77;8.50;;;26.30;75.40;;;;;;5032826;28;20348;-74
2023/06/30 01:31:13;;;;;;;11.98;8.45;;;26.30;75.40;;;;;;5032422;28;20479;-74
2023/06/30 01:33:39;;;;;;;10.55;7.85;;;26.20;75.40;;;;;;5032591;28;20075;-73
2023/06/30 01:36:08;;;;;;;14.40;8.20;;;26.10;75.40;;;;;;5032690;28;20434;-74
2023/06/30 01:38:33;;;;;;;10.77;7.80;;;26.10;75.50;;;;;;5032468;28;20026;-74
2023/06/30 01:41:00;;;;;;;12.93;8.38;;;26.10;75.50;;;;;;5014803;28;20399;-75
2023/06/30 01:43:27;;;;;;;10.48;8.48;;;26.10;75.50;;;;;;5032145;28;20025;-73
2023/06/30 01:45:53;;;;;;;11.55;8.60;;;26.10;75.60;;;;;;5032585;28;20100;-75
2023/06/30 01:48:19;;;;;;;11.18;8.50;;;26.10;75.60;;;;;;5014623;28;20463;-74
2023/06/30 01:50:45;;;;;;;14.25;8.35;;;26.20;75.50;;;;;;5032282;28;20168;-74
2023/06/30 01:53:11;;;;;;;13.75;8.60;;;26.10;75.60;;;;;;5032248;28;20065;-75
2023/06/30 01:55:39;;;;;;;12.02;8.05;;;26.10;75.60;;;;;;5032445;28;20521;-74
2023/06/30 01:58:04;;;;;;;13.30;8.52;;;26.10;75.60;;;;;;5032496;28;20088;-74
2023/06/30 02:00:30;;;;;;;12.48;8.13;;;26.10;75.60;;;;;;5032242;28;20550;-73
2023/06/30 02:02:57;;;;;;;13.50;8.50;;;26.10;75.20;;;;;;5032061;28;20399;-74
2023/06/30 02:05:23;;;;;;;13.27;8.57;;;26.10;75.10;;;;;;5031773;28;20070;-74
2023/06/30 02:07:49;;;;;;;19.20;8.88;;;26.10;75.20;;;;;;5032220;28;20073;-74
2023/06/30 02:10:14;;;;;;;13.02;8.32;;;26.10;75.20;;;;;;5032254;28;20483;-75
2023/06/30 02:12:40;;;;;;;15.00;8.52;;;26.00;75.60;;;;;;5033591;28;20120;-74
2023/06/30 02:15:08;;;;;;;11.95;8.35;;;25.90;75.70;;;;;;5036156;28;20032;-74
2023/06/30 02:17:35;;;;;;;12.18;8.38;;;25.90;75.90;;;;;;5018315;28;20038;-76
2023/06/30 02:20:06;;;;;;;13.13;8.05;;;25.90;76.30;;;;;;5036157;28;20037;-73
2023/06/30 02:22:32;;;;;;;11.45;8.43;;;25.90;76.40;;;;;;5018519;28;20072;-74
2023/06/30 02:24:58;;;;;;;11.60;8.27;;;25.90;75.90;;;;;;5035992;28;20384;-75
2023/06/30 02:27:24;;;;;;;12.70;8.45;;;25.90;76.20;;;;;;5036210;28;20048;-73
2023/06/30 02:29:50;;;;;;;12.25;8.30;;;25.90;76.00;;;;;;5018450;28;20407;-74
2023/06/30 02:32:16;;;;;;;14.68;9.07;;;25.90;76.30;;;;;;5035894;28;20041;-75
2023/06/30 02:34:41;;;;;;;12.25;8.65;;;25.90;76.20;;;;;;5035980;28;20086;-75
2023/06/30 02:37:07;;;;;;;12.25;8.45;;;25.80;76.20;;;;;;5035832;28;20033;-75
2023/06/30 02:39:33;;;;;;;12.55;8.85;;;25.80;76.10;;;;;;5035768;28;20053;-75
2023/06/30 02:41:59;;;;;;;12.13;8.88;;;25.90;76.20;;;;;;5035708;28;20525;-74
2023/06/30 02:44:24;;;;;;;16.65;9.40;;;25.80;76.30;;;;;;5035733;28;20130;-72
2023/06/30 02:46:50;;;;;;;21.08;9.57;;;25.80;76.00;;;;;;5017923;28;20072;-74
2023/06/30 02:49:16;;;;;;;12.23;8.95;;;25.70;76.20;;;;;;5035821;28;20040;-74
2023/06/30 02:51:42;;;;;;;14.82;9.40;;;25.70;76.50;;;;;;5035192;28;20235;-73
2023/06/30 02:54:07;;;;;;;15.68;9.40;;;25.70;76.40;;;;;;5035438;28;20037;-74
2023/06/30 02:56:33;;;;;;;12.43;8.70;;;25.70;76.30;;;;;;5035387;28;20857;-73
2023/06/30 02:58:59;;;;;;;15.68;9.20;;;25.80;76.30;;;;;;5035455;28;20442;-73
2023/06/30 03:01:25;;;;;;;12.20;9.25;;;25.70;76.50;;;;;;5035394;28;20034;-74
2023/06/30 03:03:52;;;;;;;16.77;9.68;;;25.70;76.70;;;;;;5035260;28;20436;-74
2023/06/30 03:06:19;;;;;;;13.88;9.38;;;25.70;76.60;;;;;;5035326;28;20044;-74
2023/06/30 03:08:45;;;;;;;14.15;9.48;;;25.70;76.60;;;;;;5035521;28;20033;-74
2023/06/30 03:11:11;;;;;;;14.85;9.18;;;25.70;76.40;;;;;;5035393;28;20129;-75
2023/06/30 03:13:37;;;;;;;13.10;10.07;;;25.60;76.40;;;;;;5035133;28;20471;-74
2023/06/30 03:16:02;;;;;;;13.95;8.65;;;25.60;76.30;;;;;;5034905;28;20029;-74
2023/06/30 03:18:28;;;;;;;14.63;8.25;;;25.60;76.70;;;;;;5034925;28;20034;-73
2023/06/30 03:20:54;;;;;;;15.40;9.38;;;25.60;76.70;;;;;;5035074;28;20029;-73
2023/06/30 03:23:19;;;;;;;11.40;7.82;;;25.60;76.60;;;;;;5035143;28;20030;-73
2023/06/30 03:25:45;;;;;;;11.65;8.57;;;25.60;76.50;;;;;;5034157;28;20037;-74
2023/06/30 03:28:11;;;;;;;10.73;7.90;;;25.50;76.70;;;;;;5034889;28;20037;-73
2023/06/30 03:30:36;;;;;;;10.80;8.48;;;25.60;76.70;;;;;;5034734;28;20084;-73
2023/06/30 03:33:02;;;;;;;12.52;8.18;;;25.50;76.60;;;;;;5034760;28;20390;-73
2023/06/30 03:35:28;;;;;;;14.50;8.07;;;25.50;76.50;;;;;;5034945;28;20029;-73
2023/06/30 03:37:54;;;;;;;10.75;7.88;;;25.60;76.40;;;;;;5034804;28;20124;-74
2023/06/30 03:40:20;;;;;;;17.25;8.40;;;25.60;76.40;;;;;;5034773;28;20482;-74
2023/06/30 03:42:45;;;;;;;13.80;8.30;;;25.60;76.40;;;;;;5034579;28;20120;-74
2023/06/30 03:45:11;;;;;;;13.23;7.88;;;25.60;76.10;;;;;;5034574;28;20140;-74
2023/06/30 03:47:37;;;;;;;10.95;7.60;;;25.60;76.00;;;;;;5034720;28;20053;-74
2023/06/30 03:50:03;;;;;;;11.00;8.45;;;25.60;76.10;;;;;;5034483;28;20403;-74
2023/06/30 03:52:29;;;;;;;13.43;7.88;;;25.60;76.00;;;;;;5034576;28;20061;-73
2023/06/30 03:54:54;;;;;;;12.45;9.27;;;25.50;76.20;;;;;;5034309;28;20033;-72
2023/06/30 03:57:20;;;;;;;15.98;9.65;;;25.50;76.50;;;;;;5016717;28;20049;-73
2023/06/30 03:59:46;;;;;;;12.55;9.10;;;25.50;76.20;;;;;;5034389;28;20104;-74
2023/06/30 04:02:13;;;;;;;12.35;8.88;;;25.50;76.40;;;;;;5034251;28;20383;-74
2023/06/30 04:04:38;;;;;;;13.80;9.15;;;25.50;76.40;;;;;;5034245;28;20614;-73
2023/06/30 04:07:04;;;;;;;14.23;9.25;;;25.60;76.50;;;;;;5034285;28;20117;-73
2023/06/30 04:09:30;;;;;;;12.15;8.75;;;25.60;76.60;;;;;;5034171;28;20162;-73
2023/06/30 04:11:56;;;;;;;13.07;8.57;;;25.60;76.70;;;;;;5034267;28;20096;-74
2023/06/30 04:14:22;;;;;;;14.00;7.97;;;25.50;76.80;;;;;;5034420;28;20037;-74
2023/06/30 04:16:47;;;;;;;11.65;8.93;;;25.50;76.80;;;;;;5033805;28;20037;-73
2023/06/30 04:19:13;;;;;;;12.40;9.20;;;25.50;76.90;;;;;;5034116;28;20060;-74
2023/06/30 04:21:39;;;;;;;12.90;9.27;;;25.50;76.90;;;;;;5033750;28;20064;-73
2023/06/30 04:24:05;;;;;;;14.30;8.43;;;25.40;76.50;;;;;;5033975;28;20509;-74
2023/06/30 04:26:31;;;;;;;14.85;8.52;;;25.50;77.00;;;;;;5016211;28;20048;-74
2023/06/30 04:28:57;;;;;;;14.95;9.32;;;25.50;76.50;;;;;;5033433;28;20042;-73
2023/06/30 04:31:23;;;;;;;16.38;8.65;;;25.50;76.40;;;;;;5033690;28;20067;-75
2023/06/30 04:33:49;;;;;;;16.52;9.15;;;25.60;76.30;;;;;;5033400;28;20029;-74
2023/06/30 04:36:17;;;;;;;11.95;8.68;;;25.60;76.30;;;;;;5033353;28;20036;-74
2023/06/30 04:38:44;;;;;;;13.43;8.65;;;25.60;76.30;;;;;;5033241;28;20045;-74
2023/06/30 04:41:10;;;;;;;17.50;9.30;;;25.60;76.40;;;;;;5033265;28;20038;-74
2023/06/30 04:43:36;;;;;;;14.38;8.48;;;25.70;76.50;;;;;;5033285;28;20040;-74
2023/06/30 04:46:01;;;;;;;13.73;8.43;;;25.70;76.40;;;;;;5033245;28;20403;-74
2023/06/30 04:48:27;;;;;;;12.60;8.27;;;25.80;76.00;;;;;;5033354;28;20140;-75
2023/06/30 04:50:53;;;;;;;17.65;9.27;;;25.80;76.00;;;;;;5032992;28;20030;-74
2023/06/30 04:53:18;;;;;;;12.05;8.63;;;25.90;75.60;;;;;;5033365;28;20026;-74
2023/06/30 04:55:44;;;;;;;15.98;9.75;;;25.80;75.50;;;;;;5033042;28;20040;-73
2023/06/30 04:58:10;;;;;;;12.95;8.45;;;25.80;75.70;;;;;;5033043;28;20037;-74
2023/06/30 05:00:35;;;;;;;14.35;9.25;;;25.80;75.50;;;;;;5032823;28;20028;-74
2023/06/30 05:03:02;;;;;;;13.25;8.07;;;25.70;75.60;;;;;;5015332;28;20076;-75
2023/06/30 05:05:28;;;;;;;10.95;8.13;;;25.70;76.00;;;;;;5034051;28;20120;-75
2023/06/30 05:07:53;;;;;;;16.92;8.50;;;25.70;75.60;;;;;;5035186;28;20080;-74
2023/06/30 05:10:19;;;;;;;15.05;8.60;;;25.80;76.20;;;;;;5033366;28;20025;-74
2023/06/30 05:12:45;;;;;;;12.18;8.20;;;25.90;75.40;;;;;;5014885;28;20041;-72
2023/06/30 05:15:11;;;;;;;14.73;8.60;;;26.00;75.50;;;;;;5032833;28;20035;-74
2023/06/30 05:17:37;;;;;;;13.55;8.25;;;26.10;75.10;;;;;;5032529;28;20112;-74
2023/06/30 05:20:05;;;;;;;14.85;8.80;;;26.40;74.70;;;;;;5032887;28;20042;-74
2023/06/30 05:22:31;;;;;;;15.40;8.85;;;26.60;74.20;;;;;;5032625;28;20112;-74
2023/06/30 05:24:57;;;;;;;18.35;8.65;;;26.80;73.90;;;;;;5032612;28;20557;-72
2023/06/30 05:27:22;;;;;;;14.95;9.40;;;27.00;72.90;;;;;;5032551;28;20179;-73
2023/06/30 05:29:48;;;;;;;12.68;8.77;;;27.40;72.20;;;;;;5032335;28;20026;-74
2023/06/30 05:32:14;;;;;;;11.23;8.48;;;27.70;71.70;;;;;;5032675;28;20111;-74
2023/06/30 05:34:42;;;;;;;20.80;8.27;;;28.00;70.70;;;;;;5032448;28;20041;-75
2023/06/30 05:37:08;;;;;;;12.85;8.10;;;28.20;69.20;;;;;;5032575;28;20088;-74
2023/06/30 05:39:33;;;;;;;14.55;8.27;;;28.40;68.60;;;;;;5032321;28;20029;-74
2023/06/30 05:41:59;;;;;;;12.50;7.82;;;28.60;68.10;;;;;;5032498;28;20038;-75
2023/06/30 05:44:24;;;;;;;14.45;8.10;;;28.80;66.90;;;;;;5032363;28;20092;-74
2023/06/30 05:46:50;;;;;;;14.07;7.80;;;29.10;66.00;;;;;;5031722;28;20121;-73
2023/06/30 05:49:16;;;;;;;11.45;7.80;;;29.40;65.30;;;;;;5032301;28;20030;-73
2023/06/30 05:51:42;;;;;;;14.52;7.60;;;29.60;64.80;;;;;;5032325;28;20037;-74
2023/06/30 05:54:10;;;;;;;12.18;7.53;;;29.80;64.40;;;;;;5014522;28;20037;-74
2023/06/30 05:56:35;;;;;;;13.95;7.80;;;30.00;63.40;;;;;;5032230;28;20048;-75
2023/06/30 05:59:01;;;;;;;11.52;7.80;;;30.20;63.50;;;;;;5032506;28;20030;-75
2023/06/30 06:01:27;;;;;;;11.75;7.55;;;30.30;63.00;;;;;;5032154;28;20491;-74
2023/06/30 06:03:53;;;;;;;15.25;7.32;;;30.50;62.90;;;;;;5031872;28;20040;-74
2023/06/30 06:06:20;;;;;;;13.32;8.10;;;30.60;62.90;;;;;;5032274;28;20641;-76
2023/06/30 06:08:49;;;;;;;16.25;7.75;;;30.80;62.40;;;;;;5032032;28;20034;-75
2023/06/30 06:11:15;;;;;;;13.43;7.35;;;30.90;62.60;;;;;;5032151;28;20052;-74
2023/06/30 06:13:40;;;;;;;13.77;8.55;;;30.90;62.30;;;;;;5032217;28;20033;-75
2023/06/30 06:16:07;;;;;;;24.67;8.15;;;31.10;61.90;;;;;;5032204;28;20037;-76
2023/06/30 06:18:33;;;;;;;12.52;7.82;;;31.20;61.90;;;;;;5014478;28;20395;-75
2023/06/30 06:21:01;;;;;;;14.13;8.40;;;31.20;61.40;;;;;;5032340;28;20079;-74
2023/06/30 06:23:27;;;;;;;16.27;8.70;;;31.40;61.60;;;;;;5032233;28;20065;-75
2023/06/30 06:25:52;;;;;;;17.95;8.60;;;31.40;61.60;;;;;;5032196;28;20115;-75
2023/06/30 06:28:18;;;;;;;15.77;8.88;;;31.40;61.80;;;;;;5032119;28;20088;-76
2023/06/30 06:30:44;;;;;;;18.85;9.55;;;31.40;61.80;;;;;;5032278;28;20038;-75
2023/06/30 06:33:10;;;;;;;13.65;9.00;;;31.40;62.20;;;;;;5031763;28;20076;-75
2023/06/30 06:35:36;;;;;;;12.55;8.20;;;31.60;62.20;;;;;;5032090;28;20037;-76
2023/06/30 06:38:03;;;;;;;15.05;8.98;;;31.80;62.00;;;;;;5031832;28;20034;-75
2023/06/30 06:40:29;;;;;;;14.80;8.70;;;31.90;61.60;;;;;;5031820;28;20037;-75
2023/06/30 06:42:55;;;;;;;14.02;8.65;;;31.80;61.30;;;;;;5031545;28;20037;-74
2023/06/30 06:45:21;;;;;;;12.35;7.88;;;31.80;61.40;;;;;;5031956;28;20050;-73
2023/06/30 06:48:18;;;;;;;12.10;8.27;;;31.90;61.20;;;;;;5031803;28;20038;-75
2023/06/30 06:50:45;;;;;;;14.85;8.98;;;32.00;61.00;;;;;;5031615;28;20048;-76
2023/06/30 06:53:15;;;;;;;12.85;7.60;;;32.10;60.10;;;;;;5013933;28;20383;-75
2023/06/30 06:55:41;;;;;;;13.43;7.28;;;32.20;59.50;;;;;;5014096;28;20037;-74
2023/06/30 06:58:07;;;;;;;14.60;9.13;;;32.30;59.40;;;;;;5032179;28;20032;-75
2023/06/30 07:00:32;;;;;;;15.70;8.35;;;32.40;59.50;;;;;;5035378;28;20037;-75
2023/06/30 07:02:58;;;;;;;12.75;8.75;;;32.30;59.50;;;;;;5035192;28;20105;-74
2023/06/30 07:05:24;;;;;;;13.13;8.43;;;32.20;59.50;;;;;;5035566;28;20038;-75
2023/06/30 07:07:49;;;;;;;13.85;8.75;;;32.20;60.00;;;;;;5018401;28;20057;-77
2023/06/30 07:10:15;;;;;;;15.05;9.45;;;32.30;59.90;;;;;;5036485;28;20037;-76
2023/06/30 07:12:41;;;;;;;14.65;8.88;;;32.40;59.90;;;;;;5035189;28;20030;-77
2023/06/30 07:15:07;;;;;;;17.90;9.52;;;32.40;59.80;;;;;;5035269;28;20406;-75
2023/06/30 07:17:33;;;;;;;14.98;8.82;;;32.50;59.60;;;;;;5035097;28;20052;-76
2023/06/30 07:19:59;;;;;;;14.75;8.82;;;32.50;59.10;;;;;;5034710;28;20511;-74
2023/06/30 07:22:24;;;;;;;15.70;8.98;;;32.40;59.40;;;;;;5034858;28;20033;-75
2023/06/30 07:24:50;;;;;;;14.57;8.68;;;32.50;59.50;;;;;;5035011;28;20117;-75
2023/06/30 07:27:15;;;;;;;14.98;9.27;;;32.50;59.50;;;;;;5034783;28;20042;-75
2023/06/30 07:29:41;;;;;;;11.48;8.68;;;32.40;60.20;;;;;;5034947;28;20493;-75
2023/06/30 07:32:07;;;;;;;14.38;9.32;;;32.20;60.80;;;;;;5034863;28;20037;-74
2023/06/30 07:34:33;;;;;;;11.45;8.40;;;32.10;61.00;;;;;;5034692;28;20040;-74
2023/06/30 07:37:00;;;;;;;15.35;9.18;;;32.10;61.00;;;;;;5034592;28;20216;-75
2023/06/30 07:39:26;;;;;;;13.90;9.32;;;31.90;61.10;;;;;;5034717;28;20387;-75
2023/06/30 07:41:51;;;;;;;13.82;8.85;;;31.90;61.00;;;;;;5034415;28;20040;-74
2023/06/30 07:44:19;;;;;;;13.60;8.70;;;31.90;60.90;;;;;;5034571;28;20440;-75
2023/06/30 07:46:45;;;;;;;14.07;8.90;;;31.90;60.70;;;;;;5034614;28;20049;-77
2023/06/30 07:49:11;;;;;;;12.57;8.50;;;31.90;60.00;;;;;;5034624;28;20079;-76
2023/06/30 07:51:36;;;;;;;12.82;8.57;;;32.10;60.10;;;;;;5034198;28;20502;-75
2023/06/30 07:54:02;;;;;;;16.70;9.50;;;32.10;60.10;;;;;;5034374;28;20531;-75
2023/06/30 07:56:28;;;;;;;13.93;8.27;;;32.10;60.00;;;;;;5034211;28;20112;-75
2023/06/30 07:58:53;;;;;;;15.55;8.82;;;32.20;59.90;;;;;;5034026;28;20029;-75
2023/06/30 08:01:19;;;;;;;12.13;8.38;;;32.20;59.70;;;;;;5034032;28;20973;-74
2023/06/30 08:03:45;;;;;;;16.05;9.07;;;32.20;60.00;;;;;;5034179;28;20034;-75
2023/06/30 08:06:10;;;;;;;14.13;8.85;;;32.20;59.90;;;;;;5033933;28;20076;-74
2023/06/30 08:08:36;;;;;;;12.82;8.68;;;32.10;60.40;;;;;;5033950;28;20025;-74
2023/06/30 08:11:02;;;;;;;17.10;8.48;;;31.90;60.30;;;;;;5033626;28;20438;-76
2023/06/30 08:13:27;;;;;;;12.93;8.88;;;31.90;60.30;;;;;;5034010;28;20069;-76
2023/06/30 08:15:53;;;;;;;19.13;9.18;;;31.90;60.20;;;;;;5033907;28;20045;-76
2023/06/30 08:18:19;;;;;;;16.35;8.38;;;31.90;60.20;;;;;;5034016;28;20064;-75
2023/06/30 08:20:44;;;;;;;13.75;8.80;;;31.90;60.50;;;;;;5033991;28;20038;-76
2023/06/30 08:23:12;;;;;;;16.20;8.35;;;31.90;60.50;;;;;;5034035;28;20434;-75
2023/06/30 08:25:37;;;;;;;12.32;8.15;;;31.90;60.30;;;;;;5015674;28;20360;-75
2023/06/30 08:28:03;;;;;;;11.50;8.27;;;31.80;60.30;;;;;;5033783;28;20041;-76
2023/06/30 08:30:29;;;;;;;11.63;8.93;;;31.80;60.30;;;;;;5033727;28;20037;-75
2023/06/30 08:32:54;;;;;;;12.68;8.10;;;31.80;60.60;;;;;;5033697;28;20557;-75
2023/06/30 08:35:20;;;;;;;12.85;9.13;;;31.70;61.00;;;;;;5033777;28;20033;-77
2023/06/30 08:37:46;;;;;;;11.63;7.90;;;31.70;60.90;;;;;;5033253;28;20154;-78
2023/06/30 08:40:12;;;;;;;15.52;8.45;;;31.60;61.10;;;;;;5033569;28;20087;-75
2023/06/30 08:42:44;;;;;;;14.23;8.57;;;31.70;61.30;;;;;;5033262;28;20041;-76
2023/06/30 08:45:13;;;;;;;13.40;8.45;;;31.80;61.40;;;;;;5032861;28;20136;-74
2023/06/30 08:47:39;;;;;;;17.05;9.45;;;31.60;61.90;;;;;;5033027;28;20375;-75
2023/06/30 08:50:06;;;;;;;18.10;9.10;;;31.50;61.80;;;;;;5033108;28;20033;-75
2023/06/30 08:52:34;;;;;;;13.07;8.27;;;31.40;62.00;;;;;;5033429;28;20041;-75
2023/06/30 08:55:01;;;;;;;14.68;8.43;;;31.20;62.10;;;;;;5033376;28;20091;-76
2023/06/30 08:57:27;;;;;;;13.15;8.93;;;31.20;62.40;;;;;;5033085;28;20034;-77
2023/06/30 08:59:53;;;;;;;17.10;8.70;;;31.10;62.80;;;;;;5033146;28;20037;-75
2023/06/30 09:02:19;;;;;;;11.75;8.15;;;31.00;63.40;;;;;;5033218;28;20060;-75
2023/06/30 09:04:45;;;;;;;14.63;8.45;;;31.00;63.00;;;;;;5033850;28;20037;-77
2023/06/30 09:07:25;;;;;;;11.40;8.68;;;31.00;63.10;;;;;;5015087;28;20041;-75
2023/06/30 09:09:56;;;;;;;14.90;8.82;;;31.00;63.30;;;;;;5032961;28;20404;-76
2023/06/30 09:12:22;;;;;;;12.55;8.32;;;31.00;62.90;;;;;;5033294;28;20626;-76
2023/06/30 09:14:51;;;;;;;15.30;8.10;;;31.00;63.60;;;;;;5033238;28;20051;-74
2023/06/30 09:17:17;;;;;;;13.82;9.02;;;31.10;63.00;;;;;;5033222;28;20557;-74
2023/06/30 09:19:44;;;;;;;15.52;8.45;;;31.10;62.00;;;;;;5033077;28;20037;-75
2023/06/30 09:22:11;;;;;;;10.95;8.23;;;31.10;62.80;;;;;;5031905;28;20033;-76
2023/06/30 09:24:36;;;;;;;16.65;8.15;;;31.10;62.70;;;;;;5032800;28;20033;-75
2023/06/30 09:27:02;;;;;;;17.35;8.45;;;31.10;62.50;;;;;;5032887;28;20048;-76
2023/06/30 09:29:36;;;;;;;13.32;8.57;;;31.10;62.60;;;;;;5032783;28;20033;-75
2023/06/30 09:32:02;;;;;;;13.15;8.30;;;31.00;62.20;;;;;;5032828;28;20045;-75
2023/06/30 09:34:28;;;;;;;14.32;8.88;;;31.00;62.40;;;;;;5033454;28;20545;-74
2023/06/30 09:36:54;;;;;;;16.05;8.23;;;31.10;62.40;;;;;;5033571;28;20041;-75
2023/06/30 09:39:21;;;;;;;14.88;8.00;;;31.10;62.30;;;;;;5032687;28;20438;-77
2023/06/30 09:41:48;;;;;;;11.95;7.88;;;31.20;62.10;;;;;;5032436;28;20048;-75
2023/06/30 09:44:17;;;;;;;17.00;8.32;;;31.30;62.20;;;;;;5032149;28;20060;-75
2023/06/30 09:46:46;;;;;;;14.00;7.93;;;31.30;62.00;;;;;;5032050;28;20038;-76
2023/06/30 09:49:32;;;;;;;21.02;9.00;;;31.30;62.20;;;;;;5032126;28;20509;-75
2023/06/30 09:52:01;;;;;;;15.52;8.13;;;31.20;62.30;;;;;;5031825;28;20136;-75
2023/06/30 09:54:27;;;;;;;17.25;8.60;;;31.20;62.30;;;;;;5013935;28;20061;-76
2023/06/30 09:56:58;;;;;;;13.13;7.93;;;31.10;62.10;;;;;;5031792;28;20064;-76
2023/06/30 09:59:25;;;;;;;13.40;8.13;;;31.10;62.40;;;;;;5031675;28;20435;-75
2023/06/30 10:01:54;;;;;;;14.02;7.68;;;31.00;62.40;;;;;;5031217;28;20479;-75
2023/06/30 10:04:20;;;;;;;13.27;8.05;;;31.10;62.40;;;;;;5031439;28;20044;-75
2023/06/30 10:06:47;;;;;;;11.68;8.23;;;31.10;62.20;;;;;;5031286;28;20045;-75
2023/06/30 10:09:15;;;;;;;10.98;8.35;;;31.20;61.90;;;;;;5031592;28;20105;-74
2023/06/30 10:11:44;;;;;;;10.85;7.60;;;31.20;61.50;;;;;;5031117;28;20415;-75
2023/06/30 10:14:11;;;;;;;11.40;7.80;;;31.30;61.20;;;;;;5031512;28;20117;-75
2023/06/30 10:16:38;;;;;;;12.52;7.97;;;31.40;61.20;;;;;;5031529;28;20186;-75
2023/06/30 10:19:06;;;;;;;13.63;7.90;;;31.40;60.90;;;;;;5031442;28;20037;-74
2023/06/30 10:21:33;;;;;;;12.63;7.57;;;31.40;60.50;;;;;;5013277;28;20399;-76
2023/06/30 10:24:02;;;;;;;14.25;8.27;;;31.40;60.80;;;;;;5031210;28;20041;-74
2023/06/30 10:26:30;;;;;;;10.73;7.88;;;31.50;60.40;;;;;;5035116;28;20049;-77
2023/06/30 10:28:55;;;;;;;16.42;8.23;;;31.50;61.30;;;;;;5034120;28;20029;-76
2023/06/30 10:31:22;;;;;;;14.52;8.32;;;31.40;61.10;;;;;;5031179;28;20133;-76
2023/06/30 10:33:48;;;;;;;13.43;8.80;;;31.40;61.70;;;;;;5032206;28;20060;-76
2023/06/30 10:36:16;;;;;;;10.90;8.30;;;31.50;61.50;;;;;;5034938;28;20064;-75
2023/06/30 10:38:43;;;;;;;13.52;8.10;;;31.50;60.90;;;;;;5034620;28;20025;-74
2023/06/30 10:41:19;;;;;;;14.07;7.63;;;31.50;61.20;;;;;;5034850;28;20044;-75
2023/06/30 10:44:03;;;;;;;12.87;7.80;;;31.50;61.00;;;;;;4995518;28;1167510;-76
2023/06/30 10:46:41;;;;;;;13.65;8.32;;;31.50;61.50;;;;;;5036561;28;20374;-75
2023/06/30 10:49:07;;;;;;;13.52;7.95;;;31.50;60.90;;;;;;5035890;28;20038;-75
2023/06/30 10:51:37;;;;;;;12.60;8.00;;;31.50;60.60;;;;;;5035854;28;20491;-76
2023/06/30 10:54:03;;;;;;;13.13;8.98;;;31.60;60.90;;;;;;5035530;28;20034;-76
2023/06/30 10:56:29;;;;;;;10.50;8.45;;;31.70;61.00;;;;;;5035676;28;20037;-78
2023/06/30 10:59:03;;;;;;;10.90;7.75;;;31.80;60.30;;;;;;5035589;28;20033;-76
2023/06/30 11:01:28;;;;;;;12.18;8.38;;;31.80;60.50;;;;;;5035926;28;20029;-76
2023/06/30 11:03:57;;;;;;;14.27;7.85;;;31.80;60.50;;;;;;5035674;28;20040;-75
2023/06/30 11:06:23;;;;;;;12.38;8.00;;;31.80;60.50;;;;;;5035301;28;20124;-76
2023/06/30 11:09:03;;;;;;;17.63;8.27;;;31.90;60.40;;;;;;5035450;28;20032;-77
2023/06/30 11:11:46;;;;;;;11.50;8.63;;;31.90;60.00;;;;;;5035729;28;20564;-75
2023/06/30 11:14:11;;;;;;;15.90;8.10;;;31.80;59.70;;;;;;5035495;28;20053;-76
2023/06/30 11:17:06;;;;;;;13.25;8.38;;;31.70;59.90;;;;;;5035223;28;20076;-74
2023/06/30 11:19:32;;;;;;;13.10;8.07;;;31.70;59.80;;;;;;5035272;28;20402;-75
2023/06/30 11:22:29;;;;;;;14.05;8.65;;;31.70;60.00;;;;;;5035146;28;20029;-76
2023/06/30 11:24:56;;;;;;;11.15;8.23;;;31.70;60.00;;;;;;5035047;28;20090;-77
2023/06/30 11:27:21;;;;;;;18.50;9.05;;;31.70;59.90;;;;;;5035128;28;20176;-76
2023/06/30 11:29:52;;;;;;;10.80;8.30;;;31.70;59.30;;;;;;5034918;28;20439;-77
2023/06/30 11:32:25;;;;;;;13.65;9.00;;;31.80;59.70;;;;;;5035284;28;20034;-75
2023/06/30 11:34:51;;;;;;;14.95;8.02;;;31.90;59.90;;;;;;5035068;28;20025;-75
2023/06/30 11:37:17;;;;;;;11.20;8.10;;;31.90;59.50;;;;;;5035322;28;20077;-77
2023/06/30 11:39:50;;;;;;;14.70;8.13;;;32.00;59.60;;;;;;5034943;28;20040;-76
2023/06/30 11:42:16;;;;;;;14.73;9.00;;;31.90;59.50;;;;;;5034812;28;20115;-74
2023/06/30 11:44:42;;;;;;;15.15;8.63;;;32.00;60.20;;;;;;5033790;28;20452;-76
2023/06/30 11:47:07;;;;;;;11.82;8.07;;;32.00;60.30;;;;;;5034411;28;20160;-77
2023/06/30 11:49:36;;;;;;;13.65;8.88;;;32.00;60.60;;;;;;5034649;28;20021;-77
2023/06/30 11:52:04;;;;;;;13.20;8.27;;;31.90;60.50;;;;;;5034971;28;20040;-76
2023/06/30 11:54:33;;;;;;;9.73;8.25;;;31.80;60.90;;;;;;5035077;28;20443;-76
2023/06/30 11:57:00;;;;;;;10.68;7.93;;;31.90;61.20;;;;;;5034279;28;20034;-76
2023/06/30 11:59:26;;;;;;;13.88;7.97;;;31.90;60.80;;;;;;5034858;28;20057;-77
2023/06/30 12:01:52;;;;;;;11.95;8.27;;;32.00;60.40;;;;;;5034603;28;20061;-77
2023/06/30 12:04:18;;;;;;;13.80;8.40;;;32.10;60.50;;;;;;5034516;28;20444;-76
2023/06/30 12:06:45;;;;;;;10.27;8.15;;;32.10;60.40;;;;;;5033892;28;20136;-74
2023/06/30 12:09:11;;;;;;;14.85;9.10;;;32.10;60.80;;;;;;5034208;28;20032;-76
2023/06/30 12:11:40;;;;;;;13.68;8.60;;;32.20;60.20;;;;;;5034475;28;20065;-77
2023/06/30 12:14:14;;;;;;;10.63;8.15;;;32.20;60.20;;;;;;5034410;28;20029;-77
2023/06/30 12:16:44;;;;;;;11.25;7.72;;;32.20;60.00;;;;;;5034126;28;20034;-77
2023/06/30 12:19:12;;;;;;;11.23;8.35;;;32.20;60.10;;;;;;5015986;28;20041;-74
2023/06/30 12:21:59;;;;;;;13.48;8.55;;;32.20;59.80;;;;;;5034030;28;20076;-75
2023/06/30 12:24:34;;;;;;;12.07;8.23;;;32.20;59.50;;;;;;5016290;28;20041;-77
2023/06/30 12:27:06;;;;;;;11.73;8.15;;;32.30;59.60;;;;;;5034264;28;20411;-75
2023/06/30 12:29:35;;;;;;;17.88;8.77;;;32.20;58.70;;;;;;5033722;28;20480;-76
2023/06/30 12:32:14;;;;;;;14.93;8.00;;;32.20;58.90;;;;;;5033816;28;20033;-76
2023/06/30 12:34:40;;;;;;;11.23;7.82;;;32.20;58.90;;;;;;5033888;28;20029;-75
2023/06/30 12:37:05;;;;;;;13.07;7.80;;;32.10;59.10;;;;;;5033465;28;20109;-76
2023/06/30 12:39:32;;;;;;;13.73;8.35;;;32.00;59.30;;;;;;5034198;28;20058;-74